Maplesville, Alabama
Current Conditions -  °F | °C
As of 2:53 PM on Friday 28 Nov 2014 (Local Time) from KEET Reporting Station
Clear Clear  
Wind Chill: 53°   Ceiling: Unl
Heat Index: 53°   Visibility: 10mi
Dew Point: 18°   Wind: 0mph
Humidity: 25%   Direction: NA
Pressure: 30.3"   Gusts: NA
Location:  32.79°N, 86.87°W
Report Text: KEET 282053Z AUTO 00000KT 10SM CLR 12/M08 A3030 RMK AO2 SLP261 T01171078 56027
Loading
Personal Weather Stations






























Interactive Weather Map New forecast layout! Learn more

10-Day Weather Forecast

Advertisements
Track Severe Weather on mobile